sensor_id;sensor_type;location;lat;lon;timestamp;P1;durP1;ratioP1;P2;durP2;ratioP2
41059;SDS011;26811;53.160;8.202;2023-10-13T00:22:22;120.03;;;37.42;;
41059;SDS011;26811;53.160;8.202;2023-10-13T00:27:24;122.30;;;39.03;;
41059;SDS011;26811;53.160;8.202;2023-10-13T00:32:29;129.20;;;39.45;;
41059;SDS011;26811;53.160;8.202;2023-10-13T00:37:34;139.98;;;41.83;;
41059;SDS011;26811;53.160;8.202;2023-10-13T00:42:43;151.13;;;42.47;;
41059;SDS011;26811;53.160;8.202;2023-10-13T00:47:52;135.40;;;43.28;;
41059;SDS011;26811;53.160;8.202;2023-10-13T00:52:57;135.32;;;43.28;;
41059;SDS011;26811;53.160;8.202;2023-10-13T00:57:58;136.45;;;43.17;;
41059;SDS011;26811;53.160;8.202;2023-10-13T01:03:03;138.40;;;41.55;;
41059;SDS011;26811;53.160;8.202;2023-10-13T01:08:07;125.97;;;42.08;;
41059;SDS011;26811;53.160;8.202;2023-10-13T01:13:11;143.88;;;45.42;;
41059;SDS011;26811;53.160;8.202;2023-10-13T01:18:12;150.73;;;46.30;;
41059;SDS011;26811;53.160;8.202;2023-10-13T01:23:14;145.20;;;44.63;;
41059;SDS011;26811;53.160;8.202;2023-10-13T01:28:24;155.00;;;46.08;;
41059;SDS011;26811;53.160;8.202;2023-10-13T01:33:25;140.50;;;43.55;;
41059;SDS011;26811;53.160;8.202;2023-10-13T01:38:29;154.55;;;44.33;;
41059;SDS011;26811;53.160;8.202;2023-10-13T01:43:33;146.73;;;44.80;;
41059;SDS011;26811;53.160;8.202;2023-10-13T01:48:35;144.55;;;45.83;;
41059;SDS011;26811;53.160;8.202;2023-10-13T01:53:40;154.70;;;45.70;;
41059;SDS011;26811;53.160;8.202;2023-10-13T01:58:43;146.57;;;43.60;;
41059;SDS011;26811;53.160;8.202;2023-10-13T02:03:47;149.57;;;44.72;;
41059;SDS011;26811;53.160;8.202;2023-10-13T02:08:49;141.77;;;44.17;;
41059;SDS011;26811;53.160;8.202;2023-10-13T02:13:57;141.40;;;44.70;;
41059;SDS011;26811;53.160;8.202;2023-10-13T02:18:57;137.63;;;43.38;;
41059;SDS011;26811;53.160;8.202;2023-10-13T02:24:04;148.70;;;46.67;;
41059;SDS011;26811;53.160;8.202;2023-10-13T02:29:13;155.73;;;46.85;;
41059;SDS011;26811;53.160;8.202;2023-10-13T02:34:17;149.73;;;46.78;;
41059;SDS011;26811;53.160;8.202;2023-10-13T02:39:19;148.02;;;47.58;;
41059;SDS011;26811;53.160;8.202;2023-10-13T02:44:25;152.63;;;47.88;;
41059;SDS011;26811;53.160;8.202;2023-10-13T02:49:31;157.75;;;47.85;;
41059;SDS011;26811;53.160;8.202;2023-10-13T02:54:33;157.20;;;47.78;;
41059;SDS011;26811;53.160;8.202;2023-10-13T02:59:39;146.93;;;47.75;;
41059;SDS011;26811;53.160;8.202;2023-10-13T03:04:40;147.88;;;46.97;;
41059;SDS011;26811;53.160;8.202;2023-10-13T03:09:41;145.27;;;47.70;;
41059;SDS011;26811;53.160;8.202;2023-10-13T03:14:50;146.13;;;46.85;;
41059;SDS011;26811;53.160;8.202;2023-10-13T03:20:16;151.05;;;47.67;;
41059;SDS011;26811;53.160;8.202;2023-10-13T03:25:25;136.32;;;45.15;;
41059;SDS011;26811;53.160;8.202;2023-10-13T03:30:28;145.45;;;45.63;;
41059;SDS011;26811;53.160;8.202;2023-10-13T03:35:35;139.63;;;45.63;;
41059;SDS011;26811;53.160;8.202;2023-10-13T03:40:45;142.10;;;46.45;;
41059;SDS011;26811;53.160;8.202;2023-10-13T03:45:56;118.97;;;41.72;;
41059;SDS011;26811;53.160;8.202;2023-10-13T03:51:08;127.93;;;41.30;;
41059;SDS011;26811;53.160;8.202;2023-10-13T03:56:14;125.95;;;40.22;;
41059;SDS011;26811;53.160;8.202;2023-10-13T04:01:15;118.65;;;39.85;;
41059;SDS011;26811;53.160;8.202;2023-10-13T04:06:17;106.70;;;37.27;;
41059;SDS011;26811;53.160;8.202;2023-10-13T04:11:18;110.30;;;36.83;;
41059;SDS011;26811;53.160;8.202;2023-10-13T04:16:37;108.05;;;37.92;;
41059;SDS011;26811;53.160;8.202;2023-10-13T04:26:55;105.63;;;37.13;;
41059;SDS011;26811;53.160;8.202;2023-10-13T04:32:14;97.35;;;36.22;;
41059;SDS011;26811;53.160;8.202;2023-10-13T04:37:15;101.22;;;35.90;;
41059;SDS011;26811;53.160;8.202;2023-10-13T04:42:48;105.38;;;37.75;;
41059;SDS011;26811;53.160;8.202;2023-10-13T04:47:57;103.88;;;36.40;;
41059;SDS011;26811;53.160;8.202;2023-10-13T04:53:38;98.15;;;35.88;;
41059;SDS011;26811;53.160;8.202;2023-10-13T04:58:57;101.85;;;36.20;;
41059;SDS011;26811;53.160;8.202;2023-10-13T05:04:16;99.80;;;36.70;;
41059;SDS011;26811;53.160;8.202;2023-10-13T05:09:38;107.22;;;37.72;;
41059;SDS011;26811;53.160;8.202;2023-10-13T05:14:57;95.90;;;36.25;;
41059;SDS011;26811;53.160;8.202;2023-10-13T05:20:16;99.15;;;35.55;;
41059;SDS011;26811;53.160;8.202;2023-10-13T05:25:38;105.22;;;34.40;;
41059;SDS011;26811;53.160;8.202;2023-10-13T05:31:00;110.28;;;35.80;;
41059;SDS011;26811;53.160;8.202;2023-10-13T05:36:20;96.20;;;33.42;;
41059;SDS011;26811;53.160;8.202;2023-10-13T05:41:39;89.28;;;33.97;;
41059;SDS011;26811;53.160;8.202;2023-10-13T05:46:58;90.32;;;33.80;;
41059;SDS011;26811;53.160;8.202;2023-10-13T05:52:22;96.75;;;33.70;;
41059;SDS011;26811;53.160;8.202;2023-10-13T05:57:47;95.72;;;33.67;;
41059;SDS011;26811;53.160;8.202;2023-10-13T06:03:06;100.25;;;34.85;;
41059;SDS011;26811;53.160;8.202;2023-10-13T06:08:25;93.80;;;33.80;;
41059;SDS011;26811;53.160;8.202;2023-10-13T06:13:44;95.70;;;33.03;;
41059;SDS011;26811;53.160;8.202;2023-10-13T06:19:05;91.35;;;32.35;;
41059;SDS011;26811;53.160;8.202;2023-10-13T06:24:24;88.10;;;32.35;;
41059;SDS011;26811;53.160;8.202;2023-10-13T06:29:43;74.20;;;29.33;;
41059;SDS011;26811;53.160;8.202;2023-10-13T06:34:46;72.55;;;28.15;;
41059;SDS011;26811;53.160;8.202;2023-10-13T06:39:48;101.82;;;28.10;;
41059;SDS011;26811;53.160;8.202;2023-10-13T06:44:49;77.97;;;27.73;;
41059;SDS011;26811;53.160;8.202;2023-10-13T06:49:53;68.78;;;25.08;;
41059;SDS011;26811;53.160;8.202;2023-10-13T06:54:54;62.92;;;25.65;;
41059;SDS011;26811;53.160;8.202;2023-10-13T06:59:55;61.30;;;24.92;;
41059;SDS011;26811;53.160;8.202;2023-10-13T07:04:56;63.75;;;23.35;;
41059;SDS011;26811;53.160;8.202;2023-10-13T07:10:08;59.67;;;24.17;;
41059;SDS011;26811;53.160;8.202;2023-10-13T07:15:11;57.28;;;24.38;;
41059;SDS011;26811;53.160;8.202;2023-10-13T07:20:19;58.90;;;23.48;;
41059;SDS011;26811;53.160;8.202;2023-10-13T07:25:29;60.20;;;23.90;;
41059;SDS011;26811;53.160;8.202;2023-10-13T07:30:32;58.70;;;24.52;;
41059;SDS011;26811;53.160;8.202;2023-10-13T07:35:41;55.97;;;24.38;;
41059;SDS011;26811;53.160;8.202;2023-10-13T07:40:42;56.33;;;22.48;;
41059;SDS011;26811;53.160;8.202;2023-10-13T07:45:51;58.60;;;25.42;;
41059;SDS011;26811;53.160;8.202;2023-10-13T07:50:58;67.20;;;27.58;;
41059;SDS011;26811;53.160;8.202;2023-10-13T07:56:13;65.10;;;27.58;;
41059;SDS011;26811;53.160;8.202;2023-10-13T08:01:18;68.68;;;26.75;;
41059;SDS011;26811;53.160;8.202;2023-10-13T08:06:19;58.53;;;24.42;;
41059;SDS011;26811;53.160;8.202;2023-10-13T08:11:19;54.67;;;19.67;;
41059;SDS011;26811;53.160;8.202;2023-10-13T08:16:23;42.63;;;17.70;;
41059;SDS011;26811;53.160;8.202;2023-10-13T08:21:29;43.75;;;16.05;;
41059;SDS011;26811;53.160;8.202;2023-10-13T08:26:32;44.40;;;15.48;;
41059;SDS011;26811;53.160;8.202;2023-10-13T08:31:38;37.60;;;13.60;;
41059;SDS011;26811;53.160;8.202;2023-10-13T08:36:41;37.30;;;12.35;;
41059;SDS011;26811;53.160;8.202;2023-10-13T08:41:42;32.08;;;12.13;;
41059;SDS011;26811;53.160;8.202;2023-10-13T08:46:59;27.98;;;12.00;;
41059;SDS011;26811;53.160;8.202;2023-10-13T08:52:05;37.75;;;12.40;;
41059;SDS011;26811;53.160;8.202;2023-10-13T08:57:30;33.38;;;12.20;;
41059;SDS011;26811;53.160;8.202;2023-10-13T09:02:33;33.03;;;12.68;;
41059;SDS011;26811;53.160;8.202;2023-10-13T09:07:52;37.10;;;13.50;;
41059;SDS011;26811;53.160;8.202;2023-10-13T09:12:54;34.42;;;12.70;;
41059;SDS011;26811;53.160;8.202;2023-10-13T09:18:00;37.05;;;13.65;;
41059;SDS011;26811;53.160;8.202;2023-10-13T09:23:27;40.90;;;14.00;;
41059;SDS011;26811;53.160;8.202;2023-10-13T09:28:45;35.63;;;14.07;;
41059;SDS011;26811;53.160;8.202;2023-10-13T09:33:51;36.83;;;14.43;;
41059;SDS011;26811;53.160;8.202;2023-10-13T09:38:51;45.70;;;14.52;;
41059;SDS011;26811;53.160;8.202;2023-10-13T09:44:11;46.63;;;15.02;;
41059;SDS011;26811;53.160;8.202;2023-10-13T09:49:12;38.78;;;15.30;;
41059;SDS011;26811;53.160;8.202;2023-10-13T09:54:37;40.60;;;14.68;;
41059;SDS011;26811;53.160;8.202;2023-10-13T09:59:49;33.47;;;15.32;;
41059;SDS011;26811;53.160;8.202;2023-10-13T10:10:13;37.05;;;16.63;;
41059;SDS011;26811;53.160;8.202;2023-10-13T10:15:29;43.05;;;17.88;;
41059;SDS011;26811;53.160;8.202;2023-10-13T10:20:47;40.42;;;16.40;;
41059;SDS011;26811;53.160;8.202;2023-10-13T10:25:52;36.88;;;16.58;;
41059;SDS011;26811;53.160;8.202;2023-10-13T10:31:05;39.22;;;16.35;;
41059;SDS011;26811;53.160;8.202;2023-10-13T10:36:09;36.75;;;16.35;;
41059;SDS011;26811;53.160;8.202;2023-10-13T10:41:14;33.92;;;16.23;;
41059;SDS011;26811;53.160;8.202;2023-10-13T10:46:17;29.73;;;16.20;;
41059;SDS011;26811;53.160;8.202;2023-10-13T10:51:25;36.58;;;15.45;;
41059;SDS011;26811;53.160;8.202;2023-10-13T10:56:31;40.85;;;15.55;;
41059;SDS011;26811;53.160;8.202;2023-10-13T11:01:42;34.45;;;14.95;;
41059;SDS011;26811;53.160;8.202;2023-10-13T11:11:49;41.55;;;13.68;;
41059;SDS011;26811;53.160;8.202;2023-10-13T11:16:53;38.90;;;14.02;;
41059;SDS011;26811;53.160;8.202;2023-10-13T11:21:54;33.28;;;12.30;;
41059;SDS011;26811;53.160;8.202;2023-10-13T11:26:55;30.90;;;12.55;;
41059;SDS011;26811;53.160;8.202;2023-10-13T11:31:57;29.40;;;10.52;;
41059;SDS011;26811;53.160;8.202;2023-10-13T11:36:59;41.20;;;12.90;;
41059;SDS011;26811;53.160;8.202;2023-10-13T11:42:19;41.88;;;11.77;;
41059;SDS011;26811;53.160;8.202;2023-10-13T11:47:20;37.05;;;11.82;;
41059;SDS011;26811;53.160;8.202;2023-10-13T11:52:47;34.40;;;11.35;;
41059;SDS011;26811;53.160;8.202;2023-10-13T11:57:49;37.03;;;11.83;;
41059;SDS011;26811;53.160;8.202;2023-10-13T12:02:49;44.60;;;12.15;;
41059;SDS011;26811;53.160;8.202;2023-10-13T12:08:08;39.53;;;11.50;;
41059;SDS011;26811;53.160;8.202;2023-10-13T12:13:21;33.58;;;11.15;;
41059;SDS011;26811;53.160;8.202;2023-10-13T12:18:22;38.55;;;11.23;;
41059;SDS011;26811;53.160;8.202;2023-10-13T12:23:23;34.20;;;10.88;;
41059;SDS011;26811;53.160;8.202;2023-10-13T12:28:31;37.63;;;10.75;;
41059;SDS011;26811;53.160;8.202;2023-10-13T12:33:37;32.47;;;10.05;;
41059;SDS011;26811;53.160;8.202;2023-10-13T12:38:40;31.40;;;9.93;;
41059;SDS011;26811;53.160;8.202;2023-10-13T12:43:47;33.17;;;10.02;;
41059;SDS011;26811;53.160;8.202;2023-10-13T12:49:13;35.38;;;9.70;;
41059;SDS011;26811;53.160;8.202;2023-10-13T12:54:36;36.47;;;10.25;;
41059;SDS011;26811;53.160;8.202;2023-10-13T12:59:39;37.00;;;9.75;;
41059;SDS011;26811;53.160;8.202;2023-10-13T13:04:41;34.10;;;9.93;;
41059;SDS011;26811;53.160;8.202;2023-10-13T13:09:44;35.72;;;9.80;;
41059;SDS011;26811;53.160;8.202;2023-10-13T13:14:44;29.83;;;9.10;;
41059;SDS011;26811;53.160;8.202;2023-10-13T13:19:46;27.77;;;10.10;;
41059;SDS011;26811;53.160;8.202;2023-10-13T13:24:46;32.47;;;9.60;;
41059;SDS011;26811;53.160;8.202;2023-10-13T13:29:47;32.45;;;9.70;;
41059;SDS011;26811;53.160;8.202;2023-10-13T13:34:48;36.53;;;9.57;;
41059;SDS011;26811;53.160;8.202;2023-10-13T13:39:58;39.20;;;10.13;;
41059;SDS011;26811;53.160;8.202;2023-10-13T13:45:18;40.35;;;11.32;;
41059;SDS011;26811;53.160;8.202;2023-10-13T13:50:22;35.65;;;10.10;;
41059;SDS011;26811;53.160;8.202;2023-10-13T13:55:25;41.22;;;10.55;;
41059;SDS011;26811;53.160;8.202;2023-10-13T14:00:31;39.38;;;10.88;;
41059;SDS011;26811;53.160;8.202;2023-10-13T14:05:44;33.17;;;10.18;;
41059;SDS011;26811;53.160;8.202;2023-10-13T14:10:45;38.22;;;10.40;;
41059;SDS011;26811;53.160;8.202;2023-10-13T14:16:04;33.72;;;10.23;;
41059;SDS011;26811;53.160;8.202;2023-10-13T14:21:04;37.88;;;10.45;;
41059;SDS011;26811;53.160;8.202;2023-10-13T14:26:06;49.47;;;9.63;;
41059;SDS011;26811;53.160;8.202;2023-10-13T14:31:09;33.65;;;10.18;;
41059;SDS011;26811;53.160;8.202;2023-10-13T14:36:13;31.27;;;10.20;;
41059;SDS011;26811;53.160;8.202;2023-10-13T14:41:17;29.05;;;9.45;;
41059;SDS011;26811;53.160;8.202;2023-10-13T14:46:19;37.42;;;10.48;;
41059;SDS011;26811;53.160;8.202;2023-10-13T14:51:23;34.17;;;9.95;;
41059;SDS011;26811;53.160;8.202;2023-10-13T15:01:27;33.78;;;9.98;;
41059;SDS011;26811;53.160;8.202;2023-10-13T15:06:32;26.83;;;9.98;;
41059;SDS011;26811;53.160;8.202;2023-10-13T15:11:33;37.55;;;10.60;;
41059;SDS011;26811;53.160;8.202;2023-10-13T15:16:36;33.78;;;10.55;;
41059;SDS011;26811;53.160;8.202;2023-10-13T15:21:37;38.85;;;10.95;;
41059;SDS011;26811;53.160;8.202;2023-10-13T15:26:40;41.00;;;11.20;;
41059;SDS011;26811;53.160;8.202;2023-10-13T15:31:45;31.00;;;10.30;;
41059;SDS011;26811;53.160;8.202;2023-10-13T15:36:59;40.40;;;10.75;;
41059;SDS011;26811;53.160;8.202;2023-10-13T15:42:00;33.50;;;11.25;;
41059;SDS011;26811;53.160;8.202;2023-10-13T15:47:02;36.92;;;11.30;;
41059;SDS011;26811;53.160;8.202;2023-10-13T15:52:02;36.83;;;11.25;;
41059;SDS011;26811;53.160;8.202;2023-10-13T15:57:04;43.35;;;11.82;;
41059;SDS011;26811;53.160;8.202;2023-10-13T16:02:07;47.55;;;12.88;;
41059;SDS011;26811;53.160;8.202;2023-10-13T16:07:11;37.58;;;12.15;;
41059;SDS011;26811;53.160;8.202;2023-10-13T16:12:12;35.50;;;13.32;;
41059;SDS011;26811;53.160;8.202;2023-10-13T16:17:15;35.60;;;12.18;;
41059;SDS011;26811;53.160;8.202;2023-10-13T16:22:21;50.00;;;12.05;;
41059;SDS011;26811;53.160;8.202;2023-10-13T16:27:21;40.75;;;12.27;;
41059;SDS011;26811;53.160;8.202;2023-10-13T16:32:22;30.50;;;11.48;;
41059;SDS011;26811;53.160;8.202;2023-10-13T16:37:26;30.90;;;11.05;;
41059;SDS011;26811;53.160;8.202;2023-10-13T16:42:27;32.53;;;11.48;;
41059;SDS011;26811;53.160;8.202;2023-10-13T16:47:27;31.55;;;10.82;;
41059;SDS011;26811;53.160;8.202;2023-10-13T16:52:28;27.38;;;10.35;;
41059;SDS011;26811;53.160;8.202;2023-10-13T16:57:29;31.85;;;9.70;;
41059;SDS011;26811;53.160;8.202;2023-10-13T17:02:30;31.25;;;9.75;;
41059;SDS011;26811;53.160;8.202;2023-10-13T17:07:30;28.02;;;9.65;;
41059;SDS011;26811;53.160;8.202;2023-10-13T17:12:31;27.17;;;8.60;;
41059;SDS011;26811;53.160;8.202;2023-10-13T17:17:33;34.47;;;9.70;;
41059;SDS011;26811;53.160;8.202;2023-10-13T17:22:33;36.83;;;9.75;;
41059;SDS011;26811;53.160;8.202;2023-10-13T17:27:37;32.80;;;10.73;;
41059;SDS011;26811;53.160;8.202;2023-10-13T17:32:39;35.13;;;11.25;;
41059;SDS011;26811;53.160;8.202;2023-10-13T17:37:39;35.67;;;11.00;;
41059;SDS011;26811;53.160;8.202;2023-10-13T17:42:44;25.08;;;9.02;;
41059;SDS011;26811;53.160;8.202;2023-10-13T17:47:49;23.45;;;9.07;;
41059;SDS011;26811;53.160;8.202;2023-10-13T17:52:50;28.70;;;8.55;;
41059;SDS011;26811;53.160;8.202;2023-10-13T17:57:51;25.05;;;7.78;;
41059;SDS011;26811;53.160;8.202;2023-10-13T18:02:51;21.27;;;7.30;;
41059;SDS011;26811;53.160;8.202;2023-10-13T18:07:54;23.60;;;7.13;;
41059;SDS011;26811;53.160;8.202;2023-10-13T18:12:54;27.33;;;7.25;;
41059;SDS011;26811;53.160;8.202;2023-10-13T18:17:56;18.85;;;7.55;;
41059;SDS011;26811;53.160;8.202;2023-10-13T18:22:56;23.05;;;7.53;;
41059;SDS011;26811;53.160;8.202;2023-10-13T18:33:06;32.22;;;8.75;;
41059;SDS011;26811;53.160;8.202;2023-10-13T18:38:07;32.83;;;9.00;;
41059;SDS011;26811;53.160;8.202;2023-10-13T18:43:10;33.10;;;10.57;;
41059;SDS011;26811;53.160;8.202;2023-10-13T18:48:10;32.40;;;11.32;;
41059;SDS011;26811;53.160;8.202;2023-10-13T18:53:14;34.60;;;10.85;;
41059;SDS011;26811;53.160;8.202;2023-10-13T18:58:14;41.97;;;12.20;;
41059;SDS011;26811;53.160;8.202;2023-10-13T19:03:18;38.72;;;10.90;;
41059;SDS011;26811;53.160;8.202;2023-10-13T19:08:18;35.63;;;11.02;;
41059;SDS011;26811;53.160;8.202;2023-10-13T19:13:19;27.98;;;11.25;;
41059;SDS011;26811;53.160;8.202;2023-10-13T19:18:20;40.10;;;11.38;;
41059;SDS011;26811;53.160;8.202;2023-10-13T19:23:31;37.10;;;11.40;;
41059;SDS011;26811;53.160;8.202;2023-10-13T19:28:36;33.90;;;11.20;;
41059;SDS011;26811;53.160;8.202;2023-10-13T19:33:37;31.55;;;10.73;;
41059;SDS011;26811;53.160;8.202;2023-10-13T19:38:41;30.00;;;10.32;;
41059;SDS011;26811;53.160;8.202;2023-10-13T19:43:45;30.90;;;9.82;;
41059;SDS011;26811;53.160;8.202;2023-10-13T19:48:47;30.92;;;9.80;;
41059;SDS011;26811;53.160;8.202;2023-10-13T19:53:47;28.58;;;10.70;;
41059;SDS011;26811;53.160;8.202;2023-10-13T19:58:51;32.65;;;11.25;;
41059;SDS011;26811;53.160;8.202;2023-10-13T20:03:55;27.73;;;11.27;;
41059;SDS011;26811;53.160;8.202;2023-10-13T20:08:56;29.92;;;11.18;;
41059;SDS011;26811;53.160;8.202;2023-10-13T20:14:24;30.48;;;11.35;;
41059;SDS011;26811;53.160;8.202;2023-10-13T20:19:25;30.33;;;10.82;;
41059;SDS011;26811;53.160;8.202;2023-10-13T20:24:29;29.75;;;9.90;;
41059;SDS011;26811;53.160;8.202;2023-10-13T20:29:29;26.58;;;10.00;;
41059;SDS011;26811;53.160;8.202;2023-10-13T20:34:33;24.50;;;9.40;;
41059;SDS011;26811;53.160;8.202;2023-10-13T20:39:34;23.00;;;9.93;;
41059;SDS011;26811;53.160;8.202;2023-10-13T20:44:34;25.85;;;9.05;;
41059;SDS011;26811;53.160;8.202;2023-10-13T20:49:38;19.83;;;9.27;;
41059;SDS011;26811;53.160;8.202;2023-10-13T20:54:39;28.70;;;9.55;;
41059;SDS011;26811;53.160;8.202;2023-10-13T20:59:51;26.77;;;9.80;;
41059;SDS011;26811;53.160;8.202;2023-10-13T21:04:52;30.83;;;11.10;;
41059;SDS011;26811;53.160;8.202;2023-10-13T21:09:52;28.77;;;11.35;;
41059;SDS011;26811;53.160;8.202;2023-10-13T21:14:57;35.20;;;13.00;;
41059;SDS011;26811;53.160;8.202;2023-10-13T21:20:00;35.85;;;14.00;;
41059;SDS011;26811;53.160;8.202;2023-10-13T21:25:01;37.85;;;13.90;;
41059;SDS011;26811;53.160;8.202;2023-10-13T21:30:03;34.58;;;13.45;;
41059;SDS011;26811;53.160;8.202;2023-10-13T21:35:07;36.42;;;14.18;;
41059;SDS011;26811;53.160;8.202;2023-10-13T21:40:09;32.33;;;14.55;;
41059;SDS011;26811;53.160;8.202;2023-10-13T21:45:17;39.80;;;14.75;;
41059;SDS011;26811;53.160;8.202;2023-10-13T21:50:18;44.53;;;15.13;;
41059;SDS011;26811;53.160;8.202;2023-10-13T21:55:20;37.10;;;14.97;;
41059;SDS011;26811;53.160;8.202;2023-10-13T22:00:23;32.55;;;16.25;;
41059;SDS011;26811;53.160;8.202;2023-10-13T22:05:35;43.15;;;14.82;;
41059;SDS011;26811;53.160;8.202;2023-10-13T22:10:36;40.28;;;16.17;;
41059;SDS011;26811;53.160;8.202;2023-10-13T22:15:38;49.33;;;17.10;;
41059;SDS011;26811;53.160;8.202;2023-10-13T22:20:45;36.72;;;15.40;;
41059;SDS011;26811;53.160;8.202;2023-10-13T22:25:47;44.58;;;16.20;;
41059;SDS011;26811;53.160;8.202;2023-10-13T22:30:48;41.47;;;15.88;;
41059;SDS011;26811;53.160;8.202;2023-10-13T22:35:49;18.45;;;8.13;;
41059;SDS011;26811;53.160;8.202;2023-10-13T22:40:50;24.23;;;8.13;;
41059;SDS011;26811;53.160;8.202;2023-10-13T22:45:51;14.82;;;6.07;;
41059;SDS011;26811;53.160;8.202;2023-10-13T22:50:51;21.05;;;7.28;;
41059;SDS011;26811;53.160;8.202;2023-10-13T22:55:52;8.13;;;3.05;;
41059;SDS011;26811;53.160;8.202;2023-10-13T23:00:52;3.83;;;2.03;;
41059;SDS011;26811;53.160;8.202;2023-10-13T23:05:58;5.15;;;1.95;;
41059;SDS011;26811;53.160;8.202;2023-10-13T23:11:11;4.88;;;1.40;;
41059;SDS011;26811;53.160;8.202;2023-10-13T23:16:15;7.95;;;1.38;;
41059;SDS011;26811;53.160;8.202;2023-10-13T23:21:16;10.35;;;1.77;;
41059;SDS011;26811;53.160;8.202;2023-10-13T23:26:17;7.25;;;1.40;;
41059;SDS011;26811;53.160;8.202;2023-10-13T23:31:19;6.97;;;1.20;;
41059;SDS011;26811;53.160;8.202;2023-10-13T23:36:20;9.65;;;1.70;;
41059;SDS011;26811;53.160;8.202;2023-10-13T23:41:24;6.63;;;1.27;;
41059;SDS011;26811;53.160;8.202;2023-10-13T23:46:27;9.45;;;1.30;;
41059;SDS011;26811;53.160;8.202;2023-10-13T23:51:34;5.28;;;1.27;;
41059;SDS011;26811;53.160;8.202;2023-10-13T23:56:35;9.60;;;1.10;;
